sensor_id;sensor_type;location;lat;lon;timestamp;pressure;altitude;pressure_sealevel;temperature;humidity
25084;BME280;13075;55.682;37.564;2023-02-13T00:02:25;99777.16;;;-1.58;100.00
25084;BME280;13075;55.682;37.564;2023-02-13T00:04:51;99774.06;;;-1.41;100.00
25084;BME280;13075;55.682;37.564;2023-02-13T00:07:16;99767.75;;;-1.38;100.00
25084;BME280;13075;55.682;37.564;2023-02-13T00:09:42;99765.13;;;-1.38;100.00
25084;BME280;13075;55.682;37.564;2023-02-13T00:12:08;99757.97;;;-1.25;100.00
25084;BME280;13075;55.682;37.564;2023-02-13T00:14:36;99750.31;;;-1.17;100.00
25084;BME280;13075;55.682;37.564;2023-02-13T00:17:02;99747.47;;;-1.14;100.00
25084;BME280;13075;55.682;37.564;2023-02-13T00:19:28;99736.50;;;-1.19;100.00
25084;BME280;13075;55.682;37.564;2023-02-13T00:21:53;99739.22;;;-1.20;100.00
25084;BME280;13075;55.682;37.564;2023-02-13T00:24:19;99735.28;;;-1.26;100.00
25084;BME280;13075;55.682;37.564;2023-02-13T00:26:45;99726.94;;;-1.20;100.00
25084;BME280;13075;55.682;37.564;2023-02-13T00:29:10;99724.06;;;-1.28;100.00
25084;BME280;13075;55.682;37.564;2023-02-13T00:31:36;99727.72;;;-0.86;100.00
25084;BME280;13075;55.682;37.564;2023-02-13T00:34:02;99732.53;;;-1.13;100.00
25084;BME280;13075;55.682;37.564;2023-02-13T00:36:27;99723.09;;;-1.16;100.00
25084;BME280;13075;55.682;37.564;2023-02-13T00:38:53;99717.19;;;-0.75;100.00
25084;BME280;13075;55.682;37.564;2023-02-13T00:41:19;99713.53;;;-0.63;100.00
25084;BME280;13075;55.682;37.564;2023-02-13T00:43:46;99703.25;;;-0.55;100.00
25084;BME280;13075;55.682;37.564;2023-02-13T00:46:12;99698.28;;;-0.69;100.00
25084;BME280;13075;55.682;37.564;2023-02-13T00:48:38;99693.25;;;-0.72;100.00
25084;BME280;13075;55.682;37.564;2023-02-13T00:51:05;99688.56;;;-0.57;100.00
25084;BME280;13075;55.682;37.564;2023-02-13T00:53:31;99683.13;;;-0.77;100.00
25084;BME280;13075;55.682;37.564;2023-02-13T00:55:56;99676.06;;;-0.65;100.00
25084;BME280;13075;55.682;37.564;2023-02-13T00:58:22;99678.63;;;-0.54;100.00
25084;BME280;13075;55.682;37.564;2023-02-13T01:03:39;99673.72;;;-0.47;100.00
25084;BME280;13075;55.682;37.564;2023-02-13T01:06:05;99675.06;;;-0.53;100.00
25084;BME280;13075;55.682;37.564;2023-02-13T01:08:31;99684.44;;;-0.71;100.00
25084;BME280;13075;55.682;37.564;2023-02-13T01:10:57;99678.47;;;-0.73;100.00
25084;BME280;13075;55.682;37.564;2023-02-13T01:13:23;99678.91;;;-0.57;100.00
25084;BME280;13075;55.682;37.564;2023-02-13T01:15:50;99676.38;;;-0.58;100.00
25084;BME280;13075;55.682;37.564;2023-02-13T01:18:17;99682.28;;;-0.66;100.00
25084;BME280;13075;55.682;37.564;2023-02-13T01:20:43;99670.44;;;-0.60;100.00
25084;BME280;13075;55.682;37.564;2023-02-13T01:23:10;99669.44;;;-0.80;100.00
25084;BME280;13075;55.682;37.564;2023-02-13T01:25:42;99668.19;;;-0.65;100.00
25084;BME280;13075;55.682;37.564;2023-02-13T01:28:07;99658.97;;;-0.18;100.00
25084;BME280;13075;55.682;37.564;2023-02-13T01:30:34;99659.03;;;-0.29;100.00
25084;BME280;13075;55.682;37.564;2023-02-13T01:32:59;99653.44;;;-0.56;100.00
25084;BME280;13075;55.682;37.564;2023-02-13T01:35:25;99648.72;;;-0.63;100.00
25084;BME280;13075;55.682;37.564;2023-02-13T01:37:50;99640.44;;;-0.58;100.00
25084;BME280;13075;55.682;37.564;2023-02-13T01:40:16;99632.38;;;-0.45;100.00
25084;BME280;13075;55.682;37.564;2023-02-13T01:42:42;99634.41;;;-0.70;100.00
25084;BME280;13075;55.682;37.564;2023-02-13T01:47:58;99622.94;;;-0.27;100.00
25084;BME280;13075;55.682;37.564;2023-02-13T01:50:33;99617.75;;;-0.38;100.00
25084;BME280;13075;55.682;37.564;2023-02-13T01:55:31;99602.38;;;-0.43;100.00
25084;BME280;13075;55.682;37.564;2023-02-13T01:58:07;99604.91;;;-0.11;100.00
25084;BME280;13075;55.682;37.564;2023-02-13T02:00:35;99593.66;;;-0.43;100.00
25084;BME280;13075;55.682;37.564;2023-02-13T02:03:12;99595.53;;;-0.55;100.00
25084;BME280;13075;55.682;37.564;2023-02-13T02:05:39;99588.72;;;-0.37;100.00
25084;BME280;13075;55.682;37.564;2023-02-13T02:08:09;99575.19;;;-0.32;100.00
25084;BME280;13075;55.682;37.564;2023-02-13T02:10:36;99579.50;;;-0.52;100.00
25084;BME280;13075;55.682;37.564;2023-02-13T02:13:11;99579.72;;;-0.65;100.00
25084;BME280;13075;55.682;37.564;2023-02-13T02:15:39;99568.28;;;-0.75;100.00
25084;BME280;13075;55.682;37.564;2023-02-13T02:18:20;99576.59;;;-0.49;100.00
25084;BME280;13075;55.682;37.564;2023-02-13T02:23:46;99575.34;;;-0.75;100.00
25084;BME280;13075;55.682;37.564;2023-02-13T02:29:12;99576.28;;;-0.97;100.00
25084;BME280;13075;55.682;37.564;2023-02-13T02:32:19;99560.34;;;-0.64;100.00
25084;BME280;13075;55.682;37.564;2023-02-13T02:45:24;99534.78;;;-0.62;100.00
25084;BME280;13075;55.682;37.564;2023-02-13T02:50:56;99525.41;;;-0.34;100.00
25084;BME280;13075;55.682;37.564;2023-02-13T02:53:43;99519.81;;;-0.40;100.00
25084;BME280;13075;55.682;37.564;2023-02-13T02:56:17;99516.69;;;-0.65;100.00
25084;BME280;13075;55.682;37.564;2023-02-13T02:58:51;99528.06;;;-0.54;100.00
25084;BME280;13075;55.682;37.564;2023-02-13T03:01:37;99519.13;;;-0.73;100.00
25084;BME280;13075;55.682;37.564;2023-02-13T03:04:27;99509.75;;;-0.66;100.00
25084;BME280;13075;55.682;37.564;2023-02-13T03:07:16;99510.00;;;-0.38;100.00
25084;BME280;13075;55.682;37.564;2023-02-13T03:09:46;99508.25;;;-0.28;100.00
25084;BME280;13075;55.682;37.564;2023-02-13T03:15:28;99500.84;;;-0.44;100.00
25084;BME280;13075;55.682;37.564;2023-02-13T03:17:55;99496.31;;;-0.42;100.00
25084;BME280;13075;55.682;37.564;2023-02-13T03:21:05;99508.47;;;-0.41;100.00
25084;BME280;13075;55.682;37.564;2023-02-13T03:24:59;99500.03;;;-0.44;100.00
25084;BME280;13075;55.682;37.564;2023-02-13T03:27:08;99491.56;;;-0.48;100.00
25084;BME280;13075;55.682;37.564;2023-02-13T03:29:38;99485.56;;;-0.39;100.00
25084;BME280;13075;55.682;37.564;2023-02-13T03:38:04;99465.44;;;-0.49;100.00
25084;BME280;13075;55.682;37.564;2023-02-13T03:40:50;99455.41;;;-0.25;100.00
25084;BME280;13075;55.682;37.564;2023-02-13T03:44:02;99452.59;;;-0.43;100.00
25084;BME280;13075;55.682;37.564;2023-02-13T03:46:33;99437.34;;;-0.49;100.00
25084;BME280;13075;55.682;37.564;2023-02-13T03:49:03;99432.53;;;-0.44;100.00
25084;BME280;13075;55.682;37.564;2023-02-13T03:51:55;99436.34;;;-0.18;100.00
25084;BME280;13075;55.682;37.564;2023-02-13T03:54:26;99433.88;;;-0.10;100.00
25084;BME280;13075;55.682;37.564;2023-02-13T03:57:18;99441.91;;;-0.11;100.00
25084;BME280;13075;55.682;37.564;2023-02-13T04:00:06;99435.09;;;-0.23;100.00
25084;BME280;13075;55.682;37.564;2023-02-13T04:02:53;99428.88;;;-0.22;100.00
25084;BME280;13075;55.682;37.564;2023-02-13T04:05:24;99436.16;;;-0.35;100.00
25084;BME280;13075;55.682;37.564;2023-02-13T04:07:51;99441.75;;;-0.10;100.00
25084;BME280;13075;55.682;37.564;2023-02-13T04:10:17;99444.22;;;-0.27;100.00
25084;BME280;13075;55.682;37.564;2023-02-13T04:15:50;99428.47;;;-0.18;100.00
25084;BME280;13075;55.682;37.564;2023-02-13T04:18:29;99432.75;;;-0.17;100.00
25084;BME280;13075;55.682;37.564;2023-02-13T04:20:55;99421.75;;;-0.41;100.00
25084;BME280;13075;55.682;37.564;2023-02-13T04:23:21;99416.16;;;-0.27;100.00
25084;BME280;13075;55.682;37.564;2023-02-13T04:25:51;99401.47;;;-0.29;100.00
25084;BME280;13075;55.682;37.564;2023-02-13T04:28:18;99399.94;;;-0.32;100.00
25084;BME280;13075;55.682;37.564;2023-02-13T04:30:43;99388.59;;;-0.32;100.00
25084;BME280;13075;55.682;37.564;2023-02-13T04:33:09;99383.41;;;-0.04;100.00
25084;BME280;13075;55.682;37.564;2023-02-13T04:35:35;99379.25;;;0.23;100.00
25084;BME280;13075;55.682;37.564;2023-02-13T04:38:00;99391.41;;;-0.05;100.00
25084;BME280;13075;55.682;37.564;2023-02-13T04:40:26;99391.41;;;-0.15;100.00
25084;BME280;13075;55.682;37.564;2023-02-13T04:42:52;99374.38;;;0.18;100.00
25084;BME280;13075;55.682;37.564;2023-02-13T04:45:17;99373.28;;;0.30;100.00
25084;BME280;13075;55.682;37.564;2023-02-13T04:47:49;99355.44;;;0.15;100.00
25084;BME280;13075;55.682;37.564;2023-02-13T04:50:15;99361.13;;;0.20;100.00
25084;BME280;13075;55.682;37.564;2023-02-13T04:52:41;99348.09;;;0.18;100.00
25084;BME280;13075;55.682;37.564;2023-02-13T04:55:06;99365.53;;;0.19;100.00
25084;BME280;13075;55.682;37.564;2023-02-13T04:57:32;99362.22;;;0.46;100.00
25084;BME280;13075;55.682;37.564;2023-02-13T04:59:57;99348.66;;;0.22;100.00
25084;BME280;13075;55.682;37.564;2023-02-13T05:02:23;99341.88;;;0.19;100.00
25084;BME280;13075;55.682;37.564;2023-02-13T05:04:49;99335.50;;;-0.07;100.00
25084;BME280;13075;55.682;37.564;2023-02-13T05:07:15;99335.78;;;-0.01;100.00
25084;BME280;13075;55.682;37.564;2023-02-13T05:09:40;99331.19;;;0.21;100.00
25084;BME280;13075;55.682;37.564;2023-02-13T05:12:06;99322.34;;;0.41;100.00
25084;BME280;13075;55.682;37.564;2023-02-13T05:14:32;99321.09;;;0.35;100.00
25084;BME280;13075;55.682;37.564;2023-02-13T05:16:57;99310.28;;;0.29;100.00
25084;BME280;13075;55.682;37.564;2023-02-13T05:19:23;99315.13;;;0.24;100.00
25084;BME280;13075;55.682;37.564;2023-02-13T05:21:48;99310.81;;;0.51;100.00
25084;BME280;13075;55.682;37.564;2023-02-13T05:24:33;99308.31;;;0.50;100.00
25084;BME280;13075;55.682;37.564;2023-02-13T05:26:58;99319.91;;;0.57;100.00
25084;BME280;13075;55.682;37.564;2023-02-13T05:29:24;99309.34;;;0.76;100.00
25084;BME280;13075;55.682;37.564;2023-02-13T05:31:52;99304.31;;;0.46;100.00
25084;BME280;13075;55.682;37.564;2023-02-13T05:34:22;99309.06;;;0.23;100.00
25084;BME280;13075;55.682;37.564;2023-02-13T05:36:49;99299.25;;;0.72;100.00
25084;BME280;13075;55.682;37.564;2023-02-13T05:39:15;99298.88;;;0.57;100.00
25084;BME280;13075;55.682;37.564;2023-02-13T05:41:42;99285.03;;;0.55;100.00
25084;BME280;13075;55.682;37.564;2023-02-13T05:44:09;99296.19;;;0.76;100.00
25084;BME280;13075;55.682;37.564;2023-02-13T05:46:36;99297.75;;;0.59;100.00
25084;BME280;13075;55.682;37.564;2023-02-13T05:49:03;99300.25;;;0.61;100.00
25084;BME280;13075;55.682;37.564;2023-02-13T05:51:29;99296.41;;;0.92;100.00
25084;BME280;13075;55.682;37.564;2023-02-13T05:53:54;99302.09;;;0.51;100.00
25084;BME280;13075;55.682;37.564;2023-02-13T05:56:20;99314.38;;;0.70;100.00
25084;BME280;13075;55.682;37.564;2023-02-13T05:58:46;99302.81;;;0.80;100.00
25084;BME280;13075;55.682;37.564;2023-02-13T06:01:12;99298.00;;;0.76;100.00
25084;BME280;13075;55.682;37.564;2023-02-13T06:03:38;99303.53;;;0.73;100.00
25084;BME280;13075;55.682;37.564;2023-02-13T06:06:05;99301.81;;;0.91;100.00
25084;BME280;13075;55.682;37.564;2023-02-13T06:08:30;99301.91;;;0.99;100.00
25084;BME280;13075;55.682;37.564;2023-02-13T06:10:56;99307.56;;;0.77;100.00
25084;BME280;13075;55.682;37.564;2023-02-13T06:13:22;99295.84;;;0.89;100.00
25084;BME280;13075;55.682;37.564;2023-02-13T06:15:47;99289.03;;;0.96;100.00
25084;BME280;13075;55.682;37.564;2023-02-13T06:18:15;99290.59;;;0.89;100.00
25084;BME280;13075;55.682;37.564;2023-02-13T06:20:40;99291.75;;;1.13;100.00
25084;BME280;13075;55.682;37.564;2023-02-13T06:23:06;99297.44;;;1.09;100.00
25084;BME280;13075;55.682;37.564;2023-02-13T06:25:33;99292.59;;;1.04;100.00
25084;BME280;13075;55.682;37.564;2023-02-13T06:28:00;99296.78;;;1.24;100.00
25084;BME280;13075;55.682;37.564;2023-02-13T06:30:25;99292.63;;;1.49;100.00
25084;BME280;13075;55.682;37.564;2023-02-13T06:32:51;99290.84;;;1.67;100.00
25084;BME280;13075;55.682;37.564;2023-02-13T06:35:16;99288.25;;;1.40;100.00
25084;BME280;13075;55.682;37.564;2023-02-13T06:37:42;99285.50;;;1.32;100.00
25084;BME280;13075;55.682;37.564;2023-02-13T06:40:12;99285.78;;;1.39;100.00
25084;BME280;13075;55.682;37.564;2023-02-13T06:42:38;99267.91;;;1.50;100.00
25084;BME280;13075;55.682;37.564;2023-02-13T06:45:04;99260.03;;;1.85;100.00
25084;BME280;13075;55.682;37.564;2023-02-13T06:47:30;99261.44;;;1.98;100.00
25084;BME280;13075;55.682;37.564;2023-02-13T06:49:56;99253.38;;;1.81;100.00
25084;BME280;13075;55.682;37.564;2023-02-13T06:52:21;99253.13;;;2.10;100.00
25084;BME280;13075;55.682;37.564;2023-02-13T06:54:47;99248.03;;;1.91;100.00
25084;BME280;13075;55.682;37.564;2023-02-13T06:57:12;99255.25;;;2.07;100.00
25084;BME280;13075;55.682;37.564;2023-02-13T06:59:38;99253.38;;;1.99;100.00
25084;BME280;13075;55.682;37.564;2023-02-13T07:02:04;99232.81;;;2.28;100.00
25084;BME280;13075;55.682;37.564;2023-02-13T07:04:30;99246.59;;;1.97;100.00
25084;BME280;13075;55.682;37.564;2023-02-13T07:06:56;99231.00;;;2.03;100.00
25084;BME280;13075;55.682;37.564;2023-02-13T07:09:22;99227.22;;;2.06;100.00
25084;BME280;13075;55.682;37.564;2023-02-13T07:11:49;99238.34;;;1.39;100.00
25084;BME280;13075;55.682;37.564;2023-02-13T07:14:15;99237.63;;;1.89;100.00
25084;BME280;13075;55.682;37.564;2023-02-13T07:16:40;99231.03;;;1.85;100.00
25084;BME280;13075;55.682;37.564;2023-02-13T07:19:06;99230.72;;;2.14;100.00
25084;BME280;13075;55.682;37.564;2023-02-13T07:21:31;99204.03;;;2.43;100.00
25084;BME280;13075;55.682;37.564;2023-02-13T07:23:57;99212.66;;;2.53;100.00
25084;BME280;13075;55.682;37.564;2023-02-13T07:26:23;99214.94;;;2.22;100.00
25084;BME280;13075;55.682;37.564;2023-02-13T07:28:51;99205.16;;;2.74;100.00
25084;BME280;13075;55.682;37.564;2023-02-13T07:31:16;99197.91;;;2.34;100.00
25084;BME280;13075;55.682;37.564;2023-02-13T07:33:42;99186.19;;;2.37;100.00
25084;BME280;13075;55.682;37.564;2023-02-13T07:36:08;99193.88;;;2.56;100.00
25084;BME280;13075;55.682;37.564;2023-02-13T07:38:33;99193.28;;;2.70;100.00
25084;BME280;13075;55.682;37.564;2023-02-13T07:41:00;99191.97;;;2.74;100.00
25084;BME280;13075;55.682;37.564;2023-02-13T07:43:27;99197.16;;;2.92;100.00
25084;BME280;13075;55.682;37.564;2023-02-13T07:45:53;99182.78;;;2.94;100.00
25084;BME280;13075;55.682;37.564;2023-02-13T07:48:22;99191.53;;;2.87;100.00
25084;BME280;13075;55.682;37.564;2023-02-13T07:50:48;99180.59;;;2.82;100.00
25084;BME280;13075;55.682;37.564;2023-02-13T07:53:14;99184.56;;;2.78;100.00
25084;BME280;13075;55.682;37.564;2023-02-13T07:55:40;99191.63;;;2.69;100.00
25084;BME280;13075;55.682;37.564;2023-02-13T07:58:05;99177.00;;;2.83;100.00
25084;BME280;13075;55.682;37.564;2023-02-13T08:00:31;99193.47;;;2.77;100.00
25084;BME280;13075;55.682;37.564;2023-02-13T08:03:00;99188.84;;;2.71;100.00
25084;BME280;13075;55.682;37.564;2023-02-13T08:05:26;99194.50;;;2.84;100.00
25084;BME280;13075;55.682;37.564;2023-02-13T08:07:52;99190.63;;;3.12;100.00
25084;BME280;13075;55.682;37.564;2023-02-13T08:10:18;99185.34;;;3.12;100.00
25084;BME280;13075;55.682;37.564;2023-02-13T08:13:03;99180.53;;;3.15;100.00
25084;BME280;13075;55.682;37.564;2023-02-13T08:15:29;99185.78;;;2.91;100.00
25084;BME280;13075;55.682;37.564;2023-02-13T08:17:55;99163.59;;;3.42;100.00
25084;BME280;13075;55.682;37.564;2023-02-13T08:20:21;99169.00;;;3.17;100.00
25084;BME280;13075;55.682;37.564;2023-02-13T08:22:46;99160.88;;;3.18;100.00
25084;BME280;13075;55.682;37.564;2023-02-13T08:25:12;99151.31;;;3.09;100.00
25084;BME280;13075;55.682;37.564;2023-02-13T08:27:38;99147.38;;;3.29;100.00
25084;BME280;13075;55.682;37.564;2023-02-13T08:30:04;99140.59;;;3.59;100.00
25084;BME280;13075;55.682;37.564;2023-02-13T08:32:30;99138.47;;;3.70;100.00
25084;BME280;13075;55.682;37.564;2023-02-13T08:34:56;99135.00;;;3.38;100.00
25084;BME280;13075;55.682;37.564;2023-02-13T08:37:21;99128.56;;;3.40;100.00
25084;BME280;13075;55.682;37.564;2023-02-13T08:39:47;99120.75;;;3.14;100.00
25084;BME280;13075;55.682;37.564;2023-02-13T08:42:12;99119.44;;;3.10;100.00
25084;BME280;13075;55.682;37.564;2023-02-13T08:44:38;99128.06;;;3.53;100.00
25084;BME280;13075;55.682;37.564;2023-02-13T08:47:06;99119.81;;;3.56;100.00
25084;BME280;13075;55.682;37.564;2023-02-13T08:49:32;99123.09;;;3.58;100.00
25084;BME280;13075;55.682;37.564;2023-02-13T08:51:59;99123.59;;;3.37;100.00
25084;BME280;13075;55.682;37.564;2023-02-13T08:54:25;99117.81;;;3.74;100.00
25084;BME280;13075;55.682;37.564;2023-02-13T08:56:52;99115.47;;;3.47;100.00
25084;BME280;13075;55.682;37.564;2023-02-13T08:59:18;99112.00;;;3.46;100.00
25084;BME280;13075;55.682;37.564;2023-02-13T09:01:44;99106.91;;;3.61;100.00
25084;BME280;13075;55.682;37.564;2023-02-13T09:04:09;99110.03;;;3.40;100.00
25084;BME280;13075;55.682;37.564;2023-02-13T09:06:35;99108.84;;;3.67;100.00
25084;BME280;13075;55.682;37.564;2023-02-13T09:09:03;99099.97;;;3.28;100.00
25084;BME280;13075;55.682;37.564;2023-02-13T09:11:29;99101.28;;;3.40;100.00
25084;BME280;13075;55.682;37.564;2023-02-13T09:13:54;99106.72;;;3.14;100.00
25084;BME280;13075;55.682;37.564;2023-02-13T09:16:20;99099.94;;;3.36;100.00
25084;BME280;13075;55.682;37.564;2023-02-13T09:18:47;99104.41;;;3.27;100.00
25084;BME280;13075;55.682;37.564;2023-02-13T09:21:13;99095.00;;;3.33;100.00
25084;BME280;13075;55.682;37.564;2023-02-13T09:23:39;99097.78;;;3.23;100.00
25084;BME280;13075;55.682;37.564;2023-02-13T09:26:15;99093.69;;;3.37;100.00
25084;BME280;13075;55.682;37.564;2023-02-13T09:28:42;99094.97;;;3.49;100.00
25084;BME280;13075;55.682;37.564;2023-02-13T09:31:13;99079.44;;;3.70;100.00
25084;BME280;13075;55.682;37.564;2023-02-13T09:33:46;99070.19;;;3.66;100.00
25084;BME280;13075;55.682;37.564;2023-02-13T09:36:14;99066.72;;;3.57;100.00
25084;BME280;13075;55.682;37.564;2023-02-13T09:38:40;99052.69;;;3.57;100.00
25084;BME280;13075;55.682;37.564;2023-02-13T09:46:17;99034.66;;;4.54;100.00
25084;BME280;13075;55.682;37.564;2023-02-13T09:48:48;99032.53;;;4.41;100.00
25084;BME280;13075;55.682;37.564;2023-02-13T09:51:17;99028.06;;;4.73;100.00
25084;BME280;13075;55.682;37.564;2023-02-13T09:53:53;99021.47;;;4.91;100.00
25084;BME280;13075;55.682;37.564;2023-02-13T09:56:34;99020.59;;;4.99;100.00
25084;BME280;13075;55.682;37.564;2023-02-13T09:59:19;99030.09;;;4.40;100.00
25084;BME280;13075;55.682;37.564;2023-02-13T10:01:51;99022.66;;;4.89;100.00
25084;BME280;13075;55.682;37.564;2023-02-13T10:07:05;99016.38;;;5.27;100.00
25084;BME280;13075;55.682;37.564;2023-02-13T10:12:29;98997.56;;;5.37;100.00
25084;BME280;13075;55.682;37.564;2023-02-13T10:15:17;99002.34;;;4.81;100.00
25084;BME280;13075;55.682;37.564;2023-02-13T10:17:53;99002.63;;;4.86;100.00
25084;BME280;13075;55.682;37.564;2023-02-13T10:23:12;99003.63;;;4.85;100.00
25084;BME280;13075;55.682;37.564;2023-02-13T10:26:11;99008.56;;;5.48;100.00
25084;BME280;13075;55.682;37.564;2023-02-13T10:28:42;99002.72;;;5.53;100.00
25084;BME280;13075;55.682;37.564;2023-02-13T10:31:10;99011.75;;;5.07;100.00
25084;BME280;13075;55.682;37.564;2023-02-13T10:38:40;99002.28;;;5.49;100.00
25084;BME280;13075;55.682;37.564;2023-02-13T10:54:55;98974.28;;;5.76;100.00
25084;BME280;13075;55.682;37.564;2023-02-13T11:00:29;98962.84;;;5.46;100.00
25084;BME280;13075;55.682;37.564;2023-02-13T11:02:57;98951.75;;;5.43;100.00
25084;BME280;13075;55.682;37.564;2023-02-13T11:05:37;98941.72;;;5.68;100.00
25084;BME280;13075;55.682;37.564;2023-02-13T11:08:16;98926.97;;;5.94;100.00
25084;BME280;13075;55.682;37.564;2023-02-13T11:10:42;98923.13;;;6.11;100.00
25084;BME280;13075;55.682;37.564;2023-02-13T11:13:19;98932.09;;;5.81;100.00
25084;BME280;13075;55.682;37.564;2023-02-13T11:18:22;98921.59;;;5.88;100.00
25084;BME280;13075;55.682;37.564;2023-02-13T11:20:58;98911.69;;;5.82;100.00
25084;BME280;13075;55.682;37.564;2023-02-13T11:26:02;98921.94;;;5.41;100.00
25084;BME280;13075;55.682;37.564;2023-02-13T11:28:31;98913.13;;;5.99;100.00
25084;BME280;13075;55.682;37.564;2023-02-13T11:33:47;98922.84;;;5.77;100.00
25084;BME280;13075;55.682;37.564;2023-02-13T11:36:15;98914.50;;;6.09;100.00
25084;BME280;13075;55.682;37.564;2023-02-13T11:38:41;98905.06;;;6.07;100.00
25084;BME280;13075;55.682;37.564;2023-02-13T11:41:12;98900.16;;;6.04;100.00
25084;BME280;13075;55.682;37.564;2023-02-13T11:46:27;98892.66;;;5.93;100.00
25084;BME280;13075;55.682;37.564;2023-02-13T11:52:01;98882.63;;;6.09;100.00
25084;BME280;13075;55.682;37.564;2023-02-13T11:54:43;98878.50;;;6.07;100.00
25084;BME280;13075;55.682;37.564;2023-02-13T11:57:23;98873.53;;;6.18;100.00
25084;BME280;13075;55.682;37.564;2023-02-13T11:59:51;98859.66;;;6.16;100.00
25084;BME280;13075;55.682;37.564;2023-02-13T12:05:17;98860.41;;;6.32;100.00
25084;BME280;13075;55.682;37.564;2023-02-13T12:07:41;98863.16;;;6.02;100.00
25084;BME280;13075;55.682;37.564;2023-02-13T12:10:29;98861.47;;;6.37;100.00
25084;BME280;13075;55.682;37.564;2023-02-13T12:13:20;98847.41;;;6.43;100.00
25084;BME280;13075;55.682;37.564;2023-02-13T12:15:44;98840.34;;;6.29;100.00
25084;BME280;13075;55.682;37.564;2023-02-13T12:18:35;98834.72;;;6.39;100.00
25084;BME280;13075;55.682;37.564;2023-02-13T12:23:59;98844.25;;;6.12;100.00
25084;BME280;13075;55.682;37.564;2023-02-13T12:26:33;98836.00;;;5.71;100.00
25084;BME280;13075;55.682;37.564;2023-02-13T12:45:35;98823.56;;;5.86;100.00
25084;BME280;13075;55.682;37.564;2023-02-13T12:56:14;98817.88;;;5.24;100.00
25084;BME280;13075;55.682;37.564;2023-02-13T13:07:18;98803.09;;;6.01;100.00
25084;BME280;13075;55.682;37.564;2023-02-13T13:12:36;98801.72;;;6.05;100.00
25084;BME280;13075;55.682;37.564;2023-02-13T13:20:41;98789.16;;;6.14;100.00
25084;BME280;13075;55.682;37.564;2023-02-13T13:24:02;98785.03;;;5.90;100.00
25084;BME280;13075;55.682;37.564;2023-02-13T13:28:59;98797.38;;;5.83;100.00
25084;BME280;13075;55.682;37.564;2023-02-13T13:31:28;98801.50;;;5.71;100.00
25084;BME280;13075;55.682;37.564;2023-02-13T13:34:02;98796.66;;;5.89;100.00
25084;BME280;13075;55.682;37.564;2023-02-13T13:36:44;98799.31;;;6.10;100.00
25084;BME280;13075;55.682;37.564;2023-02-13T13:39:35;98794.63;;;5.91;100.00
25084;BME280;13075;55.682;37.564;2023-02-13T13:42:24;98787.44;;;5.85;100.00
25084;BME280;13075;55.682;37.564;2023-02-13T13:50:24;98779.41;;;5.64;100.00
25084;BME280;13075;55.682;37.564;2023-02-13T13:53:13;98774.84;;;5.94;100.00
25084;BME280;13075;55.682;37.564;2023-02-13T13:58:34;98769.09;;;5.76;100.00
25084;BME280;13075;55.682;37.564;2023-02-13T14:01:25;98772.78;;;5.75;100.00
25084;BME280;13075;55.682;37.564;2023-02-13T14:03:58;98775.34;;;5.47;100.00
25084;BME280;13075;55.682;37.564;2023-02-13T14:14:54;98756.09;;;5.24;100.00
25084;BME280;13075;55.682;37.564;2023-02-13T14:31:35;98732.19;;;5.38;100.00
25084;BME280;13075;55.682;37.564;2023-02-13T14:36:42;98736.19;;;5.34;100.00
25084;BME280;13075;55.682;37.564;2023-02-13T14:39:26;98724.00;;;5.19;100.00
25084;BME280;13075;55.682;37.564;2023-02-13T14:44:30;98734.88;;;5.24;100.00
25084;BME280;13075;55.682;37.564;2023-02-13T14:46:59;98731.03;;;5.47;100.00
25084;BME280;13075;55.682;37.564;2023-02-13T14:49:32;98726.41;;;5.49;100.00
25084;BME280;13075;55.682;37.564;2023-02-13T14:52:05;98730.44;;;5.66;100.00
25084;BME280;13075;55.682;37.564;2023-02-13T14:54:49;98722.44;;;5.60;100.00
25084;BME280;13075;55.682;37.564;2023-02-13T14:57:43;98719.91;;;5.52;100.00
25084;BME280;13075;55.682;37.564;2023-02-13T15:00:38;98703.41;;;5.56;100.00
25084;BME280;13075;55.682;37.564;2023-02-13T15:03:46;98700.56;;;5.79;100.00
25084;BME280;13075;55.682;37.564;2023-02-13T15:06:24;98692.84;;;5.63;100.00
25084;BME280;13075;55.682;37.564;2023-02-13T15:08:52;98689.94;;;5.58;100.00
25084;BME280;13075;55.682;37.564;2023-02-13T15:11:39;98674.84;;;5.80;100.00
25084;BME280;13075;55.682;37.564;2023-02-13T15:14:29;98678.63;;;5.71;100.00
25084;BME280;13075;55.682;37.564;2023-02-13T15:17:19;98669.88;;;5.70;100.00
25084;BME280;13075;55.682;37.564;2023-02-13T15:19:49;98660.38;;;5.19;100.00
25084;BME280;13075;55.682;37.564;2023-02-13T15:22:22;98649.59;;;5.41;100.00
25084;BME280;13075;55.682;37.564;2023-02-13T15:24:50;98642.06;;;5.45;100.00
25084;BME280;13075;55.682;37.564;2023-02-13T15:27:25;98634.31;;;5.43;100.00
25084;BME280;13075;55.682;37.564;2023-02-13T15:29:57;98644.53;;;5.46;100.00
25084;BME280;13075;55.682;37.564;2023-02-13T15:32:42;98634.22;;;5.37;100.00
25084;BME280;13075;55.682;37.564;2023-02-13T15:35:23;98639.75;;;5.35;100.00
25084;BME280;13075;55.682;37.564;2023-02-13T15:37:50;98639.53;;;5.37;100.00
25084;BME280;13075;55.682;37.564;2023-02-13T15:40:22;98636.75;;;5.45;100.00
25084;BME280;13075;55.682;37.564;2023-02-13T15:42:49;98623.63;;;5.37;100.00
25084;BME280;13075;55.682;37.564;2023-02-13T15:45:17;98602.09;;;5.46;100.00
25084;BME280;13075;55.682;37.564;2023-02-13T15:47:44;98601.44;;;5.65;100.00
25084;BME280;13075;55.682;37.564;2023-02-13T15:50:32;98606.81;;;5.72;100.00
25084;BME280;13075;55.682;37.564;2023-02-13T15:53:02;98601.78;;;5.35;100.00
25084;BME280;13075;55.682;37.564;2023-02-13T15:55:31;98605.38;;;5.06;100.00
25084;BME280;13075;55.682;37.564;2023-02-13T15:57:59;98598.63;;;5.03;100.00
25084;BME280;13075;55.682;37.564;2023-02-13T16:00:29;98591.94;;;5.08;100.00
25084;BME280;13075;55.682;37.564;2023-02-13T16:02:57;98600.84;;;5.42;100.00